0PN6 weather

Memmi Airport
Three Springs, Pennsylvania, United States

Public forecast

Using degrees Fahrenheit for public forecast. Weather courtesy of forecast.io.

METAR (pilot weather report)

Closest report is Altoona Blair County Airport, 16.8 nm (31.2 km) WNW. Retrieved 2019/05/19 13:53 UTC (12 minutes ago):

KAOO 191353Z AUTO 21006KT 10SM CLR 23/18 A3002 RMK AO2 SLP155 T02330183

TAF (pilot weather forecast)

Closest forecast is Altoona Blair County Airport, 16.8 nm (31.2 km) WNW. Retrieved 2019/05/19 12:54 UTC (1 hour ago):

TAF KAOO 191150Z 1912/2012 VRB02KT 4SM BR FEW060 FM191230 19006KT P6SM SCT050 FM191600 20008KT P6SM VCSH BKN040 FM191800 21010G16KT P6SM -SHRA VCTS BKN040CB FM200000 22007KT P6SM BKN050